sensor_id;sensor_type;location;lat;lon;timestamp;pressure;altitude;pressure_sealevel;temperature;humidity
26859;BME280;14429;48.346;16.338;2023-01-15T00:00:47;99391.94;;;9.65;59.15
26859;BME280;14429;48.346;16.338;2023-01-15T00:03:14;99388.09;;;9.56;60.33
26859;BME280;14429;48.346;16.338;2023-01-15T00:05:39;99384.03;;;9.14;60.63
26859;BME280;14429;48.346;16.338;2023-01-15T00:08:05;99382.41;;;8.99;62.72
26859;BME280;14429;48.346;16.338;2023-01-15T00:10:30;99386.81;;;9.25;61.06
26859;BME280;14429;48.346;16.338;2023-01-15T00:12:56;99370.00;;;9.86;60.20
26859;BME280;14429;48.346;16.338;2023-01-15T00:15:21;99370.97;;;9.36;61.65
26859;BME280;14429;48.346;16.338;2023-01-15T00:17:47;99372.53;;;9.75;59.00
26859;BME280;14429;48.346;16.338;2023-01-15T00:20:14;99374.25;;;9.27;59.84
26859;BME280;14429;48.346;16.338;2023-01-15T00:22:39;99370.22;;;9.34;60.82
26859;BME280;14429;48.346;16.338;2023-01-15T00:25:05;99370.00;;;9.24;61.96
26859;BME280;14429;48.346;16.338;2023-01-15T00:27:31;99358.47;;;8.99;61.48
26859;BME280;14429;48.346;16.338;2023-01-15T00:29:56;99366.72;;;9.21;61.89
26859;BME280;14429;48.346;16.338;2023-01-15T00:32:22;99358.28;;;9.14;61.39
26859;BME280;14429;48.346;16.338;2023-01-15T00:34:47;99361.47;;;9.19;61.79
26859;BME280;14429;48.346;16.338;2023-01-15T00:37:14;99363.84;;;9.36;61.87
26859;BME280;14429;48.346;16.338;2023-01-15T00:39:39;99360.22;;;9.25;61.35
26859;BME280;14429;48.346;16.338;2023-01-15T00:42:05;99362.22;;;9.58;60.02
26859;BME280;14429;48.346;16.338;2023-01-15T00:44:30;99364.44;;;9.15;61.12
26859;BME280;14429;48.346;16.338;2023-01-15T00:46:55;99370.09;;;9.11;61.48
26859;BME280;14429;48.346;16.338;2023-01-15T00:49:21;99366.25;;;9.27;62.31
26859;BME280;14429;48.346;16.338;2023-01-15T00:51:46;99361.47;;;9.19;62.17
26859;BME280;14429;48.346;16.338;2023-01-15T00:54:13;99360.88;;;9.16;62.11
26859;BME280;14429;48.346;16.338;2023-01-15T00:56:38;99357.34;;;9.28;61.77
26859;BME280;14429;48.346;16.338;2023-01-15T00:59:04;99347.88;;;9.24;62.07
26859;BME280;14429;48.346;16.338;2023-01-15T01:01:30;99348.25;;;8.93;62.40
26859;BME280;14429;48.346;16.338;2023-01-15T01:03:56;99351.88;;;8.92;62.55
26859;BME280;14429;48.346;16.338;2023-01-15T01:06:21;99354.84;;;9.00;62.83
26859;BME280;14429;48.346;16.338;2023-01-15T01:08:47;99346.59;;;9.17;62.28
26859;BME280;14429;48.346;16.338;2023-01-15T01:11:15;99354.03;;;9.12;62.67
26859;BME280;14429;48.346;16.338;2023-01-15T01:13:42;99344.88;;;9.04;62.25
26859;BME280;14429;48.346;16.338;2023-01-15T01:16:21;99340.38;;;8.80;63.08
26859;BME280;14429;48.346;16.338;2023-01-15T01:18:46;99343.09;;;8.66;63.65
26859;BME280;14429;48.346;16.338;2023-01-15T01:21:12;99331.88;;;8.87;63.01
26859;BME280;14429;48.346;16.338;2023-01-15T01:23:37;99326.91;;;9.07;63.45
26859;BME280;14429;48.346;16.338;2023-01-15T01:26:03;99324.94;;;8.72;63.22
26859;BME280;14429;48.346;16.338;2023-01-15T01:28:30;99321.66;;;8.81;62.20
26859;BME280;14429;48.346;16.338;2023-01-15T01:30:55;99328.41;;;9.36;61.53
26859;BME280;14429;48.346;16.338;2023-01-15T01:33:20;99306.78;;;9.52;61.26
26859;BME280;14429;48.346;16.338;2023-01-15T01:35:47;99294.88;;;9.45;60.75
26859;BME280;14429;48.346;16.338;2023-01-15T01:38:12;99277.88;;;9.11;62.07
26859;BME280;14429;48.346;16.338;2023-01-15T01:40:38;99285.66;;;9.74;61.14
26859;BME280;14429;48.346;16.338;2023-01-15T01:43:05;99300.94;;;10.07;58.73
26859;BME280;14429;48.346;16.338;2023-01-15T01:45:32;99293.44;;;9.77;59.54
26859;BME280;14429;48.346;16.338;2023-01-15T01:48:00;99279.22;;;9.53;60.25
26859;BME280;14429;48.346;16.338;2023-01-15T01:50:27;99276.81;;;9.14;61.19
26859;BME280;14429;48.346;16.338;2023-01-15T01:52:57;99282.41;;;10.29;60.10
26859;BME280;14429;48.346;16.338;2023-01-15T01:55:25;99260.94;;;10.98;58.13
26859;BME280;14429;48.346;16.338;2023-01-15T01:57:55;99263.25;;;10.92;57.32
26859;BME280;14429;48.346;16.338;2023-01-15T02:00:23;99253.44;;;11.03;56.61
26859;BME280;14429;48.346;16.338;2023-01-15T02:02:51;99255.53;;;10.32;57.26
26859;BME280;14429;48.346;16.338;2023-01-15T02:05:26;99253.97;;;10.06;58.90
26859;BME280;14429;48.346;16.338;2023-01-15T02:07:53;99268.41;;;9.92;58.64
26859;BME280;14429;48.346;16.338;2023-01-15T02:10:19;99260.44;;;10.49;58.75
26859;BME280;14429;48.346;16.338;2023-01-15T02:12:48;99241.19;;;10.22;57.48
26859;BME280;14429;48.346;16.338;2023-01-15T02:15:18;99243.09;;;10.09;59.34
26859;BME280;14429;48.346;16.338;2023-01-15T02:17:54;99260.19;;;10.41;59.66
26859;BME280;14429;48.346;16.338;2023-01-15T02:20:29;99237.25;;;10.72;57.53
26859;BME280;14429;48.346;16.338;2023-01-15T02:29:07;99222.38;;;9.90;59.75
26859;BME280;14429;48.346;16.338;2023-01-15T02:31:36;99246.34;;;10.36;58.82
26859;BME280;14429;48.346;16.338;2023-01-15T02:34:05;99229.22;;;10.50;57.92
26859;BME280;14429;48.346;16.338;2023-01-15T02:36:36;99226.94;;;10.00;58.13
26859;BME280;14429;48.346;16.338;2023-01-15T02:39:07;99211.75;;;9.90;59.69
26859;BME280;14429;48.346;16.338;2023-01-15T02:41:37;99213.47;;;9.91;58.86
26859;BME280;14429;48.346;16.338;2023-01-15T02:44:06;99211.94;;;9.87;59.97
26859;BME280;14429;48.346;16.338;2023-01-15T02:46:33;99221.66;;;10.45;59.05
26859;BME280;14429;48.346;16.338;2023-01-15T02:49:02;99219.94;;;9.87;59.21
26859;BME280;14429;48.346;16.338;2023-01-15T02:51:32;99222.09;;;10.05;59.52
26859;BME280;14429;48.346;16.338;2023-01-15T02:54:02;99204.41;;;9.81;59.46
26859;BME280;14429;48.346;16.338;2023-01-15T02:56:32;99197.91;;;9.14;61.92
26859;BME280;14429;48.346;16.338;2023-01-15T02:59:02;99189.09;;;9.01;62.75
26859;BME280;14429;48.346;16.338;2023-01-15T03:01:34;99187.16;;;9.03;62.37
26859;BME280;14429;48.346;16.338;2023-01-15T03:04:03;99191.50;;;9.29;62.45
26859;BME280;14429;48.346;16.338;2023-01-15T03:06:36;99182.25;;;9.22;62.08
26859;BME280;14429;48.346;16.338;2023-01-15T03:09:03;99191.97;;;8.98;63.40
26859;BME280;14429;48.346;16.338;2023-01-15T03:11:32;99179.53;;;9.34;62.53
26859;BME280;14429;48.346;16.338;2023-01-15T03:14:02;99171.63;;;9.57;62.80
26859;BME280;14429;48.346;16.338;2023-01-15T03:16:34;99151.88;;;9.37;61.26
26859;BME280;14429;48.346;16.338;2023-01-15T03:19:05;99148.59;;;9.56;61.13
26859;BME280;14429;48.346;16.338;2023-01-15T03:21:39;99154.34;;;9.63;59.78
26859;BME280;14429;48.346;16.338;2023-01-15T03:24:07;99154.34;;;9.63;60.79
26859;BME280;14429;48.346;16.338;2023-01-15T03:26:34;99142.59;;;10.11;59.28
26859;BME280;14429;48.346;16.338;2023-01-15T03:29:01;99135.28;;;9.92;59.94
26859;BME280;14429;48.346;16.338;2023-01-15T03:31:28;99135.81;;;10.07;60.22
26859;BME280;14429;48.346;16.338;2023-01-15T03:33:55;99137.50;;;9.85;60.89
26859;BME280;14429;48.346;16.338;2023-01-15T03:36:21;99133.59;;;9.78;60.00
26859;BME280;14429;48.346;16.338;2023-01-15T03:38:47;99136.22;;;10.14;58.73
26859;BME280;14429;48.346;16.338;2023-01-15T03:41:19;99134.00;;;10.63;58.35
26859;BME280;14429;48.346;16.338;2023-01-15T03:43:56;99142.31;;;10.37;58.12
26859;BME280;14429;48.346;16.338;2023-01-15T03:46:38;99141.88;;;10.20;58.94
26859;BME280;14429;48.346;16.338;2023-01-15T03:49:14;99145.16;;;11.11;56.53
26859;BME280;14429;48.346;16.338;2023-01-15T03:51:50;99149.03;;;11.29;55.55
26859;BME280;14429;48.346;16.338;2023-01-15T03:54:20;99145.25;;;11.21;55.12
26859;BME280;14429;48.346;16.338;2023-01-15T03:56:51;99153.03;;;11.13;56.53
26859;BME280;14429;48.346;16.338;2023-01-15T03:59:22;99151.25;;;11.03;55.14
26859;BME280;14429;48.346;16.338;2023-01-15T04:01:52;99154.38;;;11.29;56.82
26859;BME280;14429;48.346;16.338;2023-01-15T04:04:19;99150.81;;;11.61;55.92
26859;BME280;14429;48.346;16.338;2023-01-15T04:06:45;99150.41;;;11.76;54.98
26859;BME280;14429;48.346;16.338;2023-01-15T04:09:12;99138.22;;;11.94;54.18
26859;BME280;14429;48.346;16.338;2023-01-15T04:11:37;99134.63;;;10.99;54.68
26859;BME280;14429;48.346;16.338;2023-01-15T04:14:04;99145.91;;;11.03;56.16
26859;BME280;14429;48.346;16.338;2023-01-15T04:16:31;99146.00;;;11.12;55.12
26859;BME280;14429;48.346;16.338;2023-01-15T04:18:57;99143.19;;;11.35;54.23
26859;BME280;14429;48.346;16.338;2023-01-15T04:21:24;99132.41;;;10.50;56.08
26859;BME280;14429;48.346;16.338;2023-01-15T04:23:50;99123.56;;;10.60;56.71
26859;BME280;14429;48.346;16.338;2023-01-15T04:26:15;99123.22;;;9.98;57.68
26859;BME280;14429;48.346;16.338;2023-01-15T04:28:41;99111.94;;;10.40;59.06
26859;BME280;14429;48.346;16.338;2023-01-15T04:31:06;99109.03;;;10.53;58.14
26859;BME280;14429;48.346;16.338;2023-01-15T04:33:32;99114.34;;;10.53;56.89
26859;BME280;14429;48.346;16.338;2023-01-15T04:35:58;99105.91;;;10.70;57.40
26859;BME280;14429;48.346;16.338;2023-01-15T04:38:25;99100.50;;;10.27;57.18
26859;BME280;14429;48.346;16.338;2023-01-15T04:40:50;99101.44;;;10.15;58.48
26859;BME280;14429;48.346;16.338;2023-01-15T04:43:16;99098.72;;;10.38;57.55
26859;BME280;14429;48.346;16.338;2023-01-15T04:45:42;99104.41;;;10.34;57.11
26859;BME280;14429;48.346;16.338;2023-01-15T04:48:07;99096.84;;;10.06;57.23
26859;BME280;14429;48.346;16.338;2023-01-15T04:50:33;99106.84;;;9.69;59.20
26859;BME280;14429;48.346;16.338;2023-01-15T04:52:58;99093.97;;;9.86;60.11
26859;BME280;14429;48.346;16.338;2023-01-15T04:55:25;99101.16;;;9.96;60.23
26859;BME280;14429;48.346;16.338;2023-01-15T04:57:50;99101.28;;;9.72;58.29
26859;BME280;14429;48.346;16.338;2023-01-15T05:00:17;99086.78;;;9.76;58.76
26859;BME280;14429;48.346;16.338;2023-01-15T05:02:42;99083.34;;;9.63;58.85
26859;BME280;14429;48.346;16.338;2023-01-15T05:05:08;99092.72;;;10.02;58.37
26859;BME280;14429;48.346;16.338;2023-01-15T05:07:35;99076.34;;;10.62;57.85
26859;BME280;14429;48.346;16.338;2023-01-15T05:10:01;99075.03;;;10.12;57.74
26859;BME280;14429;48.346;16.338;2023-01-15T05:12:27;99073.63;;;10.30;57.88
26859;BME280;14429;48.346;16.338;2023-01-15T05:14:53;99064.34;;;10.35;58.22
26859;BME280;14429;48.346;16.338;2023-01-15T05:17:18;99069.06;;;10.32;58.65
26859;BME280;14429;48.346;16.338;2023-01-15T05:19:44;99068.75;;;10.02;57.50
26859;BME280;14429;48.346;16.338;2023-01-15T05:22:09;99059.09;;;10.34;57.88
26859;BME280;14429;48.346;16.338;2023-01-15T05:24:35;99069.00;;;10.10;58.62
26859;BME280;14429;48.346;16.338;2023-01-15T05:27:00;99067.41;;;10.08;57.31
26859;BME280;14429;48.346;16.338;2023-01-15T05:29:27;99071.47;;;10.24;58.74
26859;BME280;14429;48.346;16.338;2023-01-15T05:31:53;99066.38;;;10.75;57.17
26859;BME280;14429;48.346;16.338;2023-01-15T05:34:18;99064.38;;;9.91;57.88
26859;BME280;14429;48.346;16.338;2023-01-15T05:36:43;99064.84;;;10.62;56.28
26859;BME280;14429;48.346;16.338;2023-01-15T05:39:09;99058.63;;;10.72;56.93
26859;BME280;14429;48.346;16.338;2023-01-15T05:41:34;99064.97;;;11.24;54.97
26859;BME280;14429;48.346;16.338;2023-01-15T05:44:01;99082.38;;;10.53;55.54
26859;BME280;14429;48.346;16.338;2023-01-15T05:46:28;99070.25;;;10.39;57.31
26859;BME280;14429;48.346;16.338;2023-01-15T05:48:54;99072.69;;;10.63;57.35
26859;BME280;14429;48.346;16.338;2023-01-15T05:51:19;99061.16;;;10.41;55.99
26859;BME280;14429;48.346;16.338;2023-01-15T05:53:45;99072.88;;;10.06;56.47
26859;BME280;14429;48.346;16.338;2023-01-15T05:56:10;99072.16;;;10.15;58.41
26859;BME280;14429;48.346;16.338;2023-01-15T05:58:36;99078.03;;;9.97;57.89
26859;BME280;14429;48.346;16.338;2023-01-15T06:01:05;99072.19;;;9.12;59.38
26859;BME280;14429;48.346;16.338;2023-01-15T06:03:32;99080.16;;;10.15;58.50
26859;BME280;14429;48.346;16.338;2023-01-15T06:05:58;99098.13;;;10.56;57.36
26859;BME280;14429;48.346;16.338;2023-01-15T06:08:23;99118.00;;;10.74;56.78
26859;BME280;14429;48.346;16.338;2023-01-15T06:10:49;99121.44;;;10.10;56.78
26859;BME280;14429;48.346;16.338;2023-01-15T06:13:15;99106.97;;;10.01;57.15
26859;BME280;14429;48.346;16.338;2023-01-15T06:15:41;99127.66;;;10.32;58.07
26859;BME280;14429;48.346;16.338;2023-01-15T06:18:07;99123.88;;;9.90;57.23
26859;BME280;14429;48.346;16.338;2023-01-15T06:20:35;99112.09;;;10.15;56.91
26859;BME280;14429;48.346;16.338;2023-01-15T06:23:01;99108.94;;;10.10;57.01
26859;BME280;14429;48.346;16.338;2023-01-15T06:25:26;99116.75;;;10.46;57.12
26859;BME280;14429;48.346;16.338;2023-01-15T06:27:52;99114.06;;;10.13;57.31
26859;BME280;14429;48.346;16.338;2023-01-15T06:30:18;99111.09;;;10.39;56.73
26859;BME280;14429;48.346;16.338;2023-01-15T06:32:43;99122.34;;;9.75;56.84
26859;BME280;14429;48.346;16.338;2023-01-15T06:35:09;99119.94;;;9.83;56.16
26859;BME280;14429;48.346;16.338;2023-01-15T06:37:36;99101.69;;;9.55;57.60
26859;BME280;14429;48.346;16.338;2023-01-15T06:40:02;99092.84;;;9.55;58.87
26859;BME280;14429;48.346;16.338;2023-01-15T06:42:27;99096.13;;;9.58;60.71
26859;BME280;14429;48.346;16.338;2023-01-15T06:44:52;99102.47;;;10.25;57.48
26859;BME280;14429;48.346;16.338;2023-01-15T06:47:19;99079.09;;;9.38;58.63
26859;BME280;14429;48.346;16.338;2023-01-15T06:49:45;99096.00;;;10.06;56.73
26859;BME280;14429;48.346;16.338;2023-01-15T06:52:11;99072.03;;;9.72;58.59
26859;BME280;14429;48.346;16.338;2023-01-15T06:54:38;99094.75;;;10.54;57.65
26859;BME280;14429;48.346;16.338;2023-01-15T06:57:03;99093.03;;;10.64;55.76
26859;BME280;14429;48.346;16.338;2023-01-15T06:59:29;99092.97;;;9.53;59.24
26859;BME280;14429;48.346;16.338;2023-01-15T07:01:54;99084.44;;;9.71;58.84
26859;BME280;14429;48.346;16.338;2023-01-15T07:04:20;99084.06;;;9.42;58.72
26859;BME280;14429;48.346;16.338;2023-01-15T07:06:45;99078.06;;;9.74;58.19
26859;BME280;14429;48.346;16.338;2023-01-15T07:09:11;99081.38;;;9.54;60.44
26859;BME280;14429;48.346;16.338;2023-01-15T07:11:38;99073.44;;;9.19;58.99
26859;BME280;14429;48.346;16.338;2023-01-15T07:14:03;99078.25;;;9.14;59.93
26859;BME280;14429;48.346;16.338;2023-01-15T07:16:29;99074.13;;;9.10;60.41
26859;BME280;14429;48.346;16.338;2023-01-15T07:18:54;99081.22;;;8.87;61.20
26859;BME280;14429;48.346;16.338;2023-01-15T07:21:20;99072.09;;;8.66;63.02
26859;BME280;14429;48.346;16.338;2023-01-15T07:23:45;99060.66;;;8.53;63.75
26859;BME280;14429;48.346;16.338;2023-01-15T07:26:11;99064.50;;;8.25;64.99
26859;BME280;14429;48.346;16.338;2023-01-15T07:28:37;99072.53;;;8.60;64.75
26859;BME280;14429;48.346;16.338;2023-01-15T07:31:03;99076.53;;;8.90;64.27
26859;BME280;14429;48.346;16.338;2023-01-15T07:33:29;99067.13;;;8.61;64.94
26859;BME280;14429;48.346;16.338;2023-01-15T07:35:54;99065.94;;;9.01;64.71
26859;BME280;14429;48.346;16.338;2023-01-15T07:38:19;99061.56;;;8.77;65.02
26859;BME280;14429;48.346;16.338;2023-01-15T07:40:45;99067.59;;;8.79;64.56
26859;BME280;14429;48.346;16.338;2023-01-15T07:43:10;99078.69;;;9.08;63.60
26859;BME280;14429;48.346;16.338;2023-01-15T07:45:38;99077.00;;;8.72;64.01
26859;BME280;14429;48.346;16.338;2023-01-15T07:48:06;99069.47;;;8.29;66.23
26859;BME280;14429;48.346;16.338;2023-01-15T07:50:32;99063.00;;;8.33;66.34
26859;BME280;14429;48.346;16.338;2023-01-15T07:52:58;99042.63;;;8.09;67.96
26859;BME280;14429;48.346;16.338;2023-01-15T07:55:23;99020.81;;;8.53;66.16
26859;BME280;14429;48.346;16.338;2023-01-15T07:57:49;99021.97;;;8.61;66.65
26859;BME280;14429;48.346;16.338;2023-01-15T08:00:19;99015.81;;;8.61;65.60
26859;BME280;14429;48.346;16.338;2023-01-15T08:02:47;99015.63;;;7.90;67.44
26859;BME280;14429;48.346;16.338;2023-01-15T08:05:12;99005.47;;;8.09;67.68
26859;BME280;14429;48.346;16.338;2023-01-15T08:07:38;99002.84;;;8.57;66.06
26859;BME280;14429;48.346;16.338;2023-01-15T08:10:04;99010.31;;;8.39;66.99
26859;BME280;14429;48.346;16.338;2023-01-15T08:12:30;98997.28;;;8.95;63.99
26859;BME280;14429;48.346;16.338;2023-01-15T08:14:55;99005.69;;;8.31;65.90
26859;BME280;14429;48.346;16.338;2023-01-15T08:17:21;99002.25;;;8.04;66.41
26859;BME280;14429;48.346;16.338;2023-01-15T08:19:48;99004.16;;;8.39;65.91
26859;BME280;14429;48.346;16.338;2023-01-15T08:22:13;98996.06;;;8.40;65.45
26859;BME280;14429;48.346;16.338;2023-01-15T08:24:38;98993.53;;;8.97;64.37
26859;BME280;14429;48.346;16.338;2023-01-15T08:27:04;99001.69;;;8.48;64.71
26859;BME280;14429;48.346;16.338;2023-01-15T08:29:30;98989.88;;;8.52;65.41
26859;BME280;14429;48.346;16.338;2023-01-15T08:31:55;98980.78;;;9.02;64.04
26859;BME280;14429;48.346;16.338;2023-01-15T08:34:21;98992.06;;;8.93;65.23
26859;BME280;14429;48.346;16.338;2023-01-15T08:36:48;99006.28;;;9.62;61.38
26859;BME280;14429;48.346;16.338;2023-01-15T08:39:13;99000.56;;;8.98;63.21
26859;BME280;14429;48.346;16.338;2023-01-15T08:41:39;98990.28;;;8.94;63.28
26859;BME280;14429;48.346;16.338;2023-01-15T08:44:04;99002.53;;;9.64;61.40
26859;BME280;14429;48.346;16.338;2023-01-15T08:46:30;99012.53;;;9.84;59.92
26859;BME280;14429;48.346;16.338;2023-01-15T08:48:55;99002.91;;;9.70;61.11
26859;BME280;14429;48.346;16.338;2023-01-15T08:51:20;99006.38;;;9.60;61.17
26859;BME280;14429;48.346;16.338;2023-01-15T08:53:47;98986.31;;;10.12;61.12
26859;BME280;14429;48.346;16.338;2023-01-15T08:56:13;98972.25;;;9.43;61.93
26859;BME280;14429;48.346;16.338;2023-01-15T08:58:39;98999.13;;;9.51;61.15
26859;BME280;14429;48.346;16.338;2023-01-15T09:01:05;99009.31;;;9.68;61.79
26859;BME280;14429;48.346;16.338;2023-01-15T09:03:31;99011.69;;;9.83;60.42
26859;BME280;14429;48.346;16.338;2023-01-15T09:05:57;99009.44;;;10.11;59.84
26859;BME280;14429;48.346;16.338;2023-01-15T09:08:22;99008.34;;;10.57;57.63
26859;BME280;14429;48.346;16.338;2023-01-15T09:10:49;99008.03;;;10.50;57.79
26859;BME280;14429;48.346;16.338;2023-01-15T09:13:15;99024.44;;;10.12;58.82
26859;BME280;14429;48.346;16.338;2023-01-15T09:15:40;99006.94;;;9.76;60.57
26859;BME280;14429;48.346;16.338;2023-01-15T09:18:05;99013.78;;;9.91;60.69
26859;BME280;14429;48.346;16.338;2023-01-15T09:20:31;99020.84;;;9.35;61.99
26859;BME280;14429;48.346;16.338;2023-01-15T09:22:56;99014.28;;;9.62;62.46
26859;BME280;14429;48.346;16.338;2023-01-15T09:25:22;99019.28;;;9.77;60.79
26859;BME280;14429;48.346;16.338;2023-01-15T09:27:48;99021.44;;;9.83;60.94
26859;BME280;14429;48.346;16.338;2023-01-15T09:30:16;99016.22;;;10.80;57.01
26859;BME280;14429;48.346;16.338;2023-01-15T09:32:42;99018.88;;;10.04;60.00
26859;BME280;14429;48.346;16.338;2023-01-15T09:35:08;99010.09;;;9.81;60.19
26859;BME280;14429;48.346;16.338;2023-01-15T09:37:34;99006.19;;;9.74;60.75
26859;BME280;14429;48.346;16.338;2023-01-15T09:39:59;99005.59;;;10.48;58.22
26859;BME280;14429;48.346;16.338;2023-01-15T09:42:35;99012.84;;;10.56;59.01
26859;BME280;14429;48.346;16.338;2023-01-15T09:45:13;99006.66;;;10.02;60.74
26859;BME280;14429;48.346;16.338;2023-01-15T09:47:47;98996.28;;;9.76;61.16
26859;BME280;14429;48.346;16.338;2023-01-15T09:50:24;98996.00;;;9.57;61.91
26859;BME280;14429;48.346;16.338;2023-01-15T09:53:04;99002.47;;;9.42;62.00
26859;BME280;14429;48.346;16.338;2023-01-15T09:55:39;99009.78;;;9.62;61.51
26859;BME280;14429;48.346;16.338;2023-01-15T09:58:09;98998.41;;;10.16;59.86
26859;BME280;14429;48.346;16.338;2023-01-15T10:00:40;98995.28;;;9.66;61.58
26859;BME280;14429;48.346;16.338;2023-01-15T10:03:20;99001.09;;;9.71;60.85
26859;BME280;14429;48.346;16.338;2023-01-15T10:05:52;98995.09;;;9.80;60.90
26859;BME280;14429;48.346;16.338;2023-01-15T10:08:23;98993.22;;;9.59;61.64
26859;BME280;14429;48.346;16.338;2023-01-15T10:10:53;98995.41;;;9.75;61.97
26859;BME280;14429;48.346;16.338;2023-01-15T10:13:26;98999.88;;;9.64;62.17
26859;BME280;14429;48.346;16.338;2023-01-15T10:15:54;98992.03;;;10.61;58.83
26859;BME280;14429;48.346;16.338;2023-01-15T10:18:22;99002.81;;;9.83;60.74
26859;BME280;14429;48.346;16.338;2023-01-15T10:20:55;99001.78;;;9.51;60.93
26859;BME280;14429;48.346;16.338;2023-01-15T10:23:35;99013.41;;;9.04;63.94
26859;BME280;14429;48.346;16.338;2023-01-15T10:26:04;99004.59;;;9.71;60.77
26859;BME280;14429;48.346;16.338;2023-01-15T10:28:45;99004.59;;;10.59;58.14
26859;BME280;14429;48.346;16.338;2023-01-15T10:31:18;99005.94;;;9.66;61.52
26859;BME280;14429;48.346;16.338;2023-01-15T10:34:02;99000.22;;;9.26;63.05
26859;BME280;14429;48.346;16.338;2023-01-15T10:36:34;98991.75;;;9.55;61.97
26859;BME280;14429;48.346;16.338;2023-01-15T10:39:09;98989.50;;;9.83;61.62
26859;BME280;14429;48.346;16.338;2023-01-15T10:41:48;98984.34;;;9.47;64.23
26859;BME280;14429;48.346;16.338;2023-01-15T10:44:19;98978.19;;;9.47;63.36
26859;BME280;14429;48.346;16.338;2023-01-15T10:46:52;98971.50;;;9.41;63.80
26859;BME280;14429;48.346;16.338;2023-01-15T10:49:20;98972.25;;;8.87;66.07
26859;BME280;14429;48.346;16.338;2023-01-15T10:51:49;98956.91;;;8.67;66.72
26859;BME280;14429;48.346;16.338;2023-01-15T10:54:23;98950.56;;;8.57;66.42
26859;BME280;14429;48.346;16.338;2023-01-15T10:56:53;98935.25;;;8.61;66.71
26859;BME280;14429;48.346;16.338;2023-01-15T10:59:36;98924.66;;;8.48;66.47
26859;BME280;14429;48.346;16.338;2023-01-15T11:02:15;98922.13;;;9.61;63.68
26859;BME280;14429;48.346;16.338;2023-01-15T11:04:45;98920.09;;;9.30;64.01
26859;BME280;14429;48.346;16.338;2023-01-15T11:07:11;98912.34;;;10.04;61.93
26859;BME280;14429;48.346;16.338;2023-01-15T11:09:37;98915.69;;;9.63;62.76
26859;BME280;14429;48.346;16.338;2023-01-15T11:12:16;98906.72;;;9.42;63.78
26859;BME280;14429;48.346;16.338;2023-01-15T11:14:44;98902.84;;;8.79;64.96
26859;BME280;14429;48.346;16.338;2023-01-15T11:17:13;98895.41;;;10.16;60.97
26859;BME280;14429;48.346;16.338;2023-01-15T11:19:39;98895.31;;;10.07;59.69
26859;BME280;14429;48.346;16.338;2023-01-15T11:22:11;98900.81;;;9.61;61.07
26859;BME280;14429;48.346;16.338;2023-01-15T11:24:45;98900.38;;;9.22;62.42
26859;BME280;14429;48.346;16.338;2023-01-15T11:27:14;98890.47;;;9.24;62.93
26859;BME280;14429;48.346;16.338;2023-01-15T11:29:42;98892.16;;;10.02;60.12
26859;BME280;14429;48.346;16.338;2023-01-15T11:32:19;98901.94;;;9.80;61.50
26859;BME280;14429;48.346;16.338;2023-01-15T11:34:52;98890.59;;;9.89;59.98
26859;BME280;14429;48.346;16.338;2023-01-15T11:37:17;98884.41;;;9.99;61.23
26859;BME280;14429;48.346;16.338;2023-01-15T11:39:51;98879.81;;;10.53;59.29
26859;BME280;14429;48.346;16.338;2023-01-15T11:42:17;98888.13;;;11.02;56.92
26859;BME280;14429;48.346;16.338;2023-01-15T11:44:50;98886.13;;;10.63;58.38
26859;BME280;14429;48.346;16.338;2023-01-15T11:47:18;98885.72;;;10.26;59.58
26859;BME280;14429;48.346;16.338;2023-01-15T11:49:48;98884.31;;;10.53;57.88
26859;BME280;14429;48.346;16.338;2023-01-15T11:52:16;98884.69;;;10.49;58.48
26859;BME280;14429;48.346;16.338;2023-01-15T11:54:45;98882.16;;;10.89;56.52
26859;BME280;14429;48.346;16.338;2023-01-15T11:57:23;98875.59;;;9.88;61.85
26859;BME280;14429;48.346;16.338;2023-01-15T11:59:49;98872.66;;;10.01;61.25
26859;BME280;14429;48.346;16.338;2023-01-15T12:02:20;98873.38;;;10.25;60.33
26859;BME280;14429;48.346;16.338;2023-01-15T12:04:51;98855.41;;;10.38;59.21
26859;BME280;14429;48.346;16.338;2023-01-15T12:07:19;98855.50;;;10.58;58.53
26859;BME280;14429;48.346;16.338;2023-01-15T12:10:05;98858.50;;;10.53;58.30
26859;BME280;14429;48.346;16.338;2023-01-15T12:12:45;98859.84;;;10.90;56.95
26859;BME280;14429;48.346;16.338;2023-01-15T12:15:24;98855.22;;;10.61;58.23
26859;BME280;14429;48.346;16.338;2023-01-15T12:18:08;98846.16;;;10.83;57.03
26859;BME280;14429;48.346;16.338;2023-01-15T12:20:49;98840.25;;;10.49;58.81
26859;BME280;14429;48.346;16.338;2023-01-15T12:23:34;98825.84;;;9.88;61.59
26859;BME280;14429;48.346;16.338;2023-01-15T12:26:07;98830.34;;;9.88;61.74
26859;BME280;14429;48.346;16.338;2023-01-15T12:28:39;98832.56;;;10.66;58.45
26859;BME280;14429;48.346;16.338;2023-01-15T12:31:12;98817.94;;;10.08;60.30
26859;BME280;14429;48.346;16.338;2023-01-15T12:33:45;98823.81;;;10.64;58.27
26859;BME280;14429;48.346;16.338;2023-01-15T12:36:17;98840.84;;;10.52;58.56
26859;BME280;14429;48.346;16.338;2023-01-15T12:38:47;98827.63;;;10.62;57.89
26859;BME280;14429;48.346;16.338;2023-01-15T12:41:16;98831.41;;;10.49;58.70
26859;BME280;14429;48.346;16.338;2023-01-15T12:43:48;98831.03;;;10.53;58.71
26859;BME280;14429;48.346;16.338;2023-01-15T12:46:18;98827.31;;;10.45;58.69
26859;BME280;14429;48.346;16.338;2023-01-15T12:48:50;98818.06;;;10.49;58.90
26859;BME280;14429;48.346;16.338;2023-01-15T12:51:22;98819.31;;;10.45;59.58
26859;BME280;14429;48.346;16.338;2023-01-15T12:53:52;98812.63;;;10.08;61.31
26859;BME280;14429;48.346;16.338;2023-01-15T12:56:24;98812.06;;;10.67;58.83
26859;BME280;14429;48.346;16.338;2023-01-15T12:58:55;98815.13;;;10.62;58.76
26859;BME280;14429;48.346;16.338;2023-01-15T13:01:29;98815.88;;;10.84;57.64
26859;BME280;14429;48.346;16.338;2023-01-15T13:04:10;98816.78;;;10.74;57.88
26859;BME280;14429;48.346;16.338;2023-01-15T13:06:39;98805.09;;;11.06;56.69